createdAt,value
2023-02-24T00:03:30.961Z,100025.13
2023-02-24T00:08:32.336Z,100015.50
2023-02-24T00:13:35.343Z,100018.88
2023-02-24T00:18:36.702Z,100006.19
2023-02-24T00:23:38.346Z,100005.16
2023-02-24T00:28:40.487Z,99995.91
2023-02-24T00:33:44.253Z,99987.16
2023-02-24T00:38:47.115Z,99986.97
2023-02-24T00:43:50.179Z,99981.44
2023-02-24T00:48:56.459Z,99970.69
2023-02-24T00:53:57.994Z,99973.09
2023-02-24T00:59:00.474Z,99969.22
2023-02-24T01:04:08.043Z,99969.13
2023-02-24T01:09:14.629Z,99954.75
2023-02-24T01:14:19.357Z,99945.47
2023-02-24T01:19:23.998Z,99943.66
2023-02-24T01:24:25.968Z,99934.19
2023-02-24T01:29:27.405Z,99928.06
2023-02-24T01:34:28.733Z,99935.59
2023-02-24T01:39:30.228Z,99935.13
2023-02-24T01:44:32.738Z,99920.78
2023-02-24T01:49:37.952Z,99913.91
2023-02-24T01:54:46.045Z,99901.75
2023-02-24T01:59:51.052Z,99907.84
2023-02-24T02:05:01.809Z,99884.72
2023-02-24T02:10:03.976Z,99895.28
2023-02-24T02:15:07.582Z,99890.72
2023-02-24T02:20:36.682Z,99890.72
2023-02-24T02:26:02.795Z,99887.50
2023-02-24T02:31:41.122Z,99879.81
2023-02-24T02:36:54.730Z,99882.22
2023-02-24T02:42:07.019Z,99879.59
2023-02-24T02:47:20.251Z,99865.09
2023-02-24T02:52:31.794Z,99861.94
2023-02-24T02:57:38.003Z,99862.19
2023-02-24T03:02:45.351Z,99850.78
2023-02-24T03:07:54.537Z,99839.91
2023-02-24T03:12:59.546Z,99842.84
2023-02-24T03:18:10.134Z,99843.31
2023-02-24T03:23:16.707Z,99833.88
2023-02-24T03:28:29.160Z,99840.88
2023-02-24T03:33:49.293Z,99834.38
2023-02-24T03:38:50.616Z,99830.16
2023-02-24T03:43:52.106Z,99823.56
2023-02-24T03:49:02.854Z,99829.16
2023-02-24T03:54:42.782Z,99820.69
2023-02-24T04:00:22.757Z,99818.47
2023-02-24T04:05:27.483Z,99816.16
2023-02-24T04:10:39.317Z,99811.66
2023-02-24T04:15:48.467Z,99800.91
2023-02-24T04:20:52.906Z,99790.69
2023-02-24T04:25:57.868Z,99784.38
2023-02-24T04:31:09.944Z,99779.13
2023-02-24T04:36:12.791Z,99761.50
2023-02-24T04:41:21.189Z,99756.66
2023-02-24T04:46:23.278Z,99757.00
2023-02-24T04:51:24.760Z,99744.25
2023-02-24T04:56:26.073Z,99737.34
2023-02-24T05:01:27.387Z,99723.75
2023-02-24T05:06:28.788Z,99726.03
2023-02-24T05:11:34.733Z,99723.75
2023-02-24T05:16:37.629Z,99715.63
2023-02-24T05:21:38.985Z,99708.41
2023-02-24T05:26:43.378Z,99716.91
2023-02-24T05:31:45.629Z,99715.38
2023-02-24T05:36:49.045Z,99720.50
2023-02-24T05:41:50.918Z,99714.63
2023-02-24T05:47:00.767Z,99716.09
2023-02-24T05:52:08.663Z,99715.38
2023-02-24T05:57:16.939Z,99712.69
2023-02-24T06:02:27.248Z,99705.28
2023-02-24T06:07:34.389Z,99703.09
2023-02-24T06:12:35.997Z,99696.56
2023-02-24T06:17:37.626Z,99699.81
2023-02-24T06:22:42.271Z,99698.34
2023-02-24T06:27:43.746Z,99694.75
2023-02-24T06:32:45.207Z,99689.47
2023-02-24T06:37:47.214Z,99694.16
2023-02-24T06:42:50.470Z,99693.19
2023-02-24T06:47:52.208Z,99696.22
2023-02-24T06:53:00.607Z,99692.69
2023-02-24T06:58:04.795Z,99688.38
2023-02-24T07:03:15.417Z,99689.00
2023-02-24T07:08:19.036Z,99689.81
2023-02-24T07:13:20.433Z,99696.19
2023-02-24T07:18:22.875Z,99689.72
2023-02-24T07:23:24.310Z,99679.88
2023-02-24T07:28:25.646Z,99678.84
2023-02-24T07:33:27.931Z,99667.84
2023-02-24T07:38:29.350Z,99665.53
2023-02-24T07:43:30.733Z,99653.88
2023-02-24T07:48:32.031Z,99660.66
2023-02-24T07:53:33.498Z,99654.47
2023-02-24T07:58:34.821Z,99643.03
2023-02-24T08:03:41.137Z,99647.88
2023-02-24T08:08:58.145Z,99645.94
2023-02-24T08:14:02.486Z,99638.16
2023-02-24T08:19:03.911Z,99627.59
2023-02-24T08:24:05.943Z,99625.28
2023-02-24T08:29:07.356Z,99612.22
2023-02-24T08:34:08.768Z,99605.72
2023-02-24T08:39:10.149Z,99605.94
2023-02-24T08:44:12.785Z,99596.91
2023-02-24T08:49:16.949Z,99594.97
2023-02-24T08:54:27.023Z,99583.84
2023-02-24T08:59:37.758Z,99589.09
2023-02-24T09:04:39.719Z,99585.25
2023-02-24T09:09:42.450Z,99585.00
2023-02-24T09:14:43.870Z,99583.06
2023-02-24T09:19:47.980Z,99576.97
2023-02-24T09:24:51.032Z,99577.25
2023-02-24T09:29:52.471Z,99566.84
2023-02-24T09:34:53.910Z,99561.66
2023-02-24T09:39:57.873Z,99553.44
2023-02-24T09:45:11.388Z,99541.56
2023-02-24T09:50:48.276Z,99534.56
2023-02-24T09:56:05.283Z,99513.31
2023-02-24T10:01:45.592Z,99507.53
2023-02-24T10:07:02.938Z,99501.88
2023-02-24T10:12:23.970Z,99502.72
2023-02-24T10:17:39.975Z,99501.63
2023-02-24T10:22:54.056Z,99482.88
2023-02-24T10:28:20.740Z,99468.22
2023-02-24T10:33:30.209Z,99458.59
2023-02-24T10:38:33.952Z,99444.97
2023-02-24T10:43:45.332Z,99443.28
2023-02-24T10:49:01.670Z,99437.69
2023-02-24T10:54:31.302Z,99425.91
2023-02-24T10:59:58.256Z,99415.94
2023-02-24T11:05:38.681Z,99419.25
2023-02-24T11:10:53.132Z,99410.31
2023-02-24T11:16:14.586Z,99403.47
2023-02-24T11:21:16.308Z,99390.00
2023-02-24T11:26:23.472Z,99370.16
2023-02-24T11:31:42.695Z,99379.88
2023-02-24T11:37:16.901Z,99361.66
2023-02-24T11:42:31.399Z,99355.66
2023-02-24T11:47:47.796Z,99347.59
2023-02-24T11:52:51.845Z,99342.00
2023-02-24T11:57:59.179Z,99339.72
2023-02-24T12:03:18.182Z,99330.59
2023-02-24T12:08:31.883Z,99322.75
2023-02-24T12:13:39.742Z,99309.50
2023-02-24T12:18:47.919Z,99303.47
2023-02-24T12:23:53.557Z,99298.75
2023-02-24T12:29:48.491Z,99300.78
2023-02-24T12:35:06.772Z,99288.19
2023-02-24T12:40:27.348Z,99282.97
2023-02-24T12:45:48.091Z,99271.19
2023-02-24T12:51:09.733Z,99260.41
2023-02-24T12:56:19.945Z,99256.69
2023-02-24T13:01:56.775Z,99261.25
2023-02-24T13:07:36.949Z,99242.38
2023-02-24T13:12:47.330Z,99225.47
2023-02-24T13:17:53.504Z,99223.22
2023-02-24T13:22:55.807Z,99214.72
2023-02-24T13:28:01.195Z,99208.28
2023-02-24T13:33:21.693Z,99196.94
2023-02-24T13:38:35.346Z,99196.09
2023-02-24T13:43:36.800Z,99185.75
2023-02-24T13:49:07.506Z,99185.34
2023-02-24T13:54:39.835Z,99167.38
2023-02-24T13:59:53.048Z,99161.13
2023-02-24T14:04:57.680Z,99155.56
2023-02-24T14:10:05.396Z,99156.00
2023-02-24T14:15:10.571Z,99153.53
2023-02-24T14:20:18.908Z,99134.91
2023-02-24T14:25:24.712Z,99134.28
2023-02-24T14:30:31.698Z,99133.03
2023-02-24T14:35:34.789Z,99122.72
2023-02-24T14:40:36.149Z,99120.84
2023-02-24T14:45:49.009Z,99115.88
2023-02-24T14:50:50.710Z,99115.06
2023-02-24T14:55:56.425Z,99105.34
2023-02-24T15:01:05.737Z,99106.78
2023-02-24T15:06:15.436Z,99105.31
2023-02-24T15:11:16.705Z,99103.41
2023-02-24T15:16:25.569Z,99092.69
2023-02-24T15:21:54.026Z,99081.75
2023-02-24T15:27:00.967Z,99076.75
2023-02-24T15:32:06.798Z,99081.53
2023-02-24T15:37:26.331Z,99075.56
2023-02-24T15:42:34.484Z,99064.19
2023-02-24T15:47:46.054Z,99064.38
2023-02-24T15:52:47.889Z,99071.41
2023-02-24T15:57:58.371Z,99064.59
2023-02-24T17:01:25.303Z,99076.38
2023-02-24T17:06:27.552Z,99087.72
2023-02-24T17:11:29.187Z,99081.81
2023-02-24T17:16:30.608Z,99080.19
2023-02-24T17:21:31.933Z,99081.81
2023-02-24T17:26:33.274Z,99094.16
2023-02-24T17:31:34.828Z,99093.09
2023-02-24T17:36:36.248Z,99095.38
2023-02-24T17:41:37.605Z,99099.44
2023-02-24T17:46:39.098Z,99099.97
2023-02-24T17:51:40.534Z,99099.97
2023-02-24T17:56:41.933Z,99112.84
2023-02-24T18:01:43.270Z,99103.34
2023-02-24T18:06:44.970Z,99100.56
2023-02-24T18:11:47.673Z,99095.69
2023-02-24T18:16:49.065Z,99088.06
2023-02-24T18:21:50.410Z,99066.44
2023-02-24T18:26:51.749Z,99078.13
2023-02-24T18:31:53.268Z,99097.13
2023-02-24T18:36:54.896Z,99099.16
2023-02-24T18:41:58.275Z,99109.56
2023-02-24T18:47:00.921Z,99115.16
2023-02-24T18:52:02.455Z,99121.16
2023-02-24T18:57:03.943Z,99131.41
2023-02-24T19:02:05.344Z,99119.88
2023-02-24T19:07:07.565Z,99114.47
2023-02-24T19:12:09.045Z,99099.97
2023-02-24T19:17:10.427Z,99092.31
2023-02-24T19:22:11.938Z,99096.38
2023-02-24T19:27:13.952Z,99085.66
2023-02-24T19:32:15.447Z,99088.22
2023-02-24T19:37:16.867Z,99077.88
2023-02-24T19:42:18.244Z,99071.09
2023-02-24T19:47:19.690Z,99073.13
2023-02-24T19:52:21.086Z,99073.13
2023-02-24T19:57:22.478Z,99071.69
2023-02-24T20:02:24.282Z,99063.97
2023-02-24T20:07:25.697Z,99056.44
2023-02-24T20:12:27.506Z,99063.81
2023-02-24T20:17:28.946Z,99054.72
2023-02-24T20:22:30.449Z,99041.72
2023-02-24T20:27:32.558Z,99051.78
2023-02-24T20:32:34.086Z,99035.09
2023-02-24T20:37:36.080Z,99040.38
2023-02-24T20:42:37.424Z,99047.53
2023-02-24T20:47:38.873Z,99047.72
2023-02-24T20:52:40.279Z,99056.19
2023-02-24T20:57:41.648Z,99047.72
2023-02-24T21:02:43.586Z,99054.16
2023-02-24T21:07:45.313Z,99052.13
2023-02-24T21:12:47.250Z,99058.56
2023-02-24T21:17:48.615Z,99056.09
2023-02-24T21:22:49.964Z,99055.09
2023-02-24T21:27:51.338Z,99052.69
2023-02-24T21:32:52.705Z,99053.06
2023-02-24T21:37:54.052Z,99055.44
2023-02-24T21:42:55.401Z,99077.19
2023-02-24T21:47:56.797Z,99058.13
2023-02-24T21:52:58.120Z,99076.47
2023-02-24T21:57:59.523Z,99091.69
2023-02-24T22:03:00.934Z,99100.34
2023-02-24T22:08:02.447Z,99102.03
2023-02-24T22:13:03.805Z,99098.13
2023-02-24T22:18:05.228Z,99107.47
2023-02-24T22:23:06.537Z,99102.56
2023-02-24T22:28:07.950Z,99107.28
2023-02-24T22:33:09.441Z,99104.59
2023-02-24T22:38:10.864Z,99111.31
2023-02-24T22:43:12.234Z,99114.91
2023-02-24T22:48:14.325Z,99116.75
2023-02-24T22:53:16.367Z,99128.25
2023-02-24T22:58:19.721Z,99115.28
2023-02-24T23:03:24.600Z,99120.72
2023-02-24T23:08:31.009Z,99142.34
2023-02-24T23:13:35.319Z,99149.06
2023-02-24T23:18:37.724Z,99161.44
2023-02-24T23:23:39.065Z,99160.97
2023-02-24T23:28:40.816Z,99165.09
2023-02-24T23:33:42.159Z,99159.50
2023-02-24T23:38:44.796Z,99169.81
2023-02-24T23:43:46.216Z,99178.19
2023-02-24T23:48:52.387Z,99181.63
2023-02-24T23:53:53.723Z,99185.78
2023-02-24T23:58:58.652Z,99188.28
